Time;durP1;ratioP1;P1;durP2;ratioP2;P2;SDS_P1;SDS_P2;PMS_P1;PMS_P2;Temp;Humidity;BMP_temperature;BMP_pressure;BME280_temperature;BME280_humidity;BME280_pressure;Samples;Min_cycle;Max_cycle;Signal;HPM_P1;HPM_P2
2022/03/21 00:01:16;;;;;;;;;;;;;;;;;;2211842;59;1561;-73
2022/03/21 00:03:49;;;;;;;;;;;;;;;;;;2211692;59;1250;-73
2022/03/21 00:06:25;;;;;;;;;;;;;;;;;;2211338;67;1108;-73
2022/03/21 00:08:59;;;;;;;;;;;;;;;;;;2212356;59;1242;-73
2022/03/21 00:11:35;;;;;;;;;;;;;;;;;;2212923;59;1976;-73
2022/03/21 00:14:10;;;;;;;;;;;;;;;;;;2211613;67;2032;-73
2022/03/21 00:16:44;;;;;;;;;;;;;;;;;;2212796;67;1935;-73
2022/03/21 00:19:17;;;;;;;;;;;;;;;;;;2213149;67;1164;-73
2022/03/21 00:21:53;;;;;;;;;;;;;;;;;;2213831;53;2323;-69
2022/03/21 00:24:26;;;;;;;;;;;;;;;;;;2211370;59;1325;-68
2022/03/21 00:26:59;;;;;;;;;;;;;;;;;;2213790;59;1282;-69
2022/03/21 00:29:32;;;;;;;;;;;;;;;;;;2213969;59;1188;-69
2022/03/21 00:32:06;;;;;;;;;;;;;;;;;;2213913;67;1230;-69
2022/03/21 00:34:39;;;;;;;;;;;;;;;;;;2213860;59;1167;-69
2022/03/21 00:37:15;;;;;;;;;;;;;;;;;;2213415;59;2000;-69
2022/03/21 00:39:48;;;;;;;;;;;;;;;;;;2213519;59;1228;-68
2022/03/21 00:42:21;;;;;;;;;;;;;;;;;;2214117;59;1684;-69
2022/03/21 00:44:54;;;;;;;;;;;;;;;;;;2212816;59;1602;-69
2022/03/21 00:47:28;;;;;;;;;;;;;;;;;;2213434;59;1077;-69
2022/03/21 00:50:01;;;;;;;;;;;;;;;;;;2214373;59;1144;-69
2022/03/21 00:52:40;;;;;;;;;;;;;;;;;;2214339;67;1253;-69
2022/03/21 00:55:14;;;;;;;;;;;;;;;;;;2214323;59;1197;-69
2022/03/21 00:57:47;;;;;;;;;;;;;;;;;;2214732;67;1937;-69
2022/03/21 01:00:22;;;;;;;;;;;;;;;;;;2214392;67;1074;-69
2022/03/21 01:02:55;;;;;;;;;;;;;;;;;;2212888;59;1705;-69
2022/03/21 01:05:29;;;;;;;;;;;;;;;;;;2213875;67;1192;-69
2022/03/21 01:08:05;;;;;;;;;;;;;;;;;;2214453;59;2066;-69
2022/03/21 01:10:38;;;;;;;;;;;;;;;;;;2213513;67;1182;-68
2022/03/21 01:13:11;;;;;;;;;;;;;;;;;;2214175;59;2168;-69
2022/03/21 01:15:44;;;;;;;;;;;;;;;;;;2213930;59;1925;-68
2022/03/21 01:18:18;;;;;;;;;;;;;;;;;;2213656;67;1108;-69
2022/03/21 01:20:51;;;;;;;;;;;;;;;;;;2214371;67;1136;-69
2022/03/21 01:23:27;;;;;;;;;;;;;;;;;;2212923;59;1580;-68
2022/03/21 01:26:00;;;;;;;;;;;;;;;;;;2213224;67;1068;-68
2022/03/21 01:28:33;;;;;;;;;;;;;;;;;;2214184;67;1183;-69
2022/03/21 01:31:06;;;;;;;;;;;;;;;;;;2214979;67;1212;-68
2022/03/21 01:33:41;;;;;;;;;;;;;;;;;;2213831;67;1244;-68
2022/03/21 01:36:14;;;;;;;;;;;;;;;;;;2214336;67;1932;-69
2022/03/21 01:38:49;;;;;;;;;;;;;;;;;;2215056;67;1287;-69
2022/03/21 01:41:23;;;;;;;;;;;;;;;;;;2214779;59;1875;-69
2022/03/21 01:44:03;;;;;;;;;;;;;;;;;;2213436;59;1243;-69
2022/03/21 01:46:37;;;;;;;;;;;;;;;;;;2214210;67;1312;-69
2022/03/21 01:49:11;;;;;;;;;;;;;;;;;;2214174;67;1257;-69
2022/03/21 01:51:45;;;;;;;;;;;;;;;;;;2215633;59;1290;-69
2022/03/21 01:57:10;;;;;;;;;;;;;;;;;;2215367;59;1935;-68
2022/03/21 01:59:44;;;;;;;;;;;;;;;;;;2215386;67;1226;-68
2022/03/21 02:02:17;;;;;;;;;;;;;;;;;;2214298;59;1675;-69
2022/03/21 02:04:50;;;;;;;;;;;;;;;;;;2215277;67;1334;-69
2022/03/21 02:07:25;;;;;;;;;;;;;;;;;;2215310;67;1266;-68
2022/03/21 02:10:02;;;;;;;;;;;;;;;;;;2214416;59;1203;-68
2022/03/21 02:12:36;;;;;;;;;;;;;;;;;;2214084;59;2044;-69
2022/03/21 02:15:10;;;;;;;;;;;;;;;;;;2214381;59;1099;-68
2022/03/21 02:17:46;;;;;;;;;;;;;;;;;;2215316;67;1923;-69
2022/03/21 02:20:20;;;;;;;;;;;;;;;;;;2215137;59;1239;-69
2022/03/21 02:23:01;;;;;;;;;;;;;;;;;;2214306;59;1616;-68
2022/03/21 02:25:37;;;;;;;;;;;;;;;;;;2211692;67;1091;-68
2022/03/21 02:28:11;;;;;;;;;;;;;;;;;;2214803;59;1257;-69
2022/03/21 02:30:46;;;;;;;;;;;;;;;;;;2214884;67;1175;-69
2022/03/21 02:33:20;;;;;;;;;;;;;;;;;;2214574;59;1657;-69
2022/03/21 02:35:53;;;;;;;;;;;;;;;;;;2214442;67;1210;-68
2022/03/21 02:38:26;;;;;;;;;;;;;;;;;;2215027;59;1974;-68
2022/03/21 02:41:02;;;;;;;;;;;;;;;;;;2214210;67;1187;-69
2022/03/21 02:43:50;;;;;;;;;;;;;;;;;;2214318;59;1399;-68
2022/03/21 02:46:24;;;;;;;;;;;;;;;;;;2214380;67;1071;-69
2022/03/21 02:48:58;;;;;;;;;;;;;;;;;;2214731;67;1247;-69
2022/03/21 02:51:32;;;;;;;;;;;;;;;;;;2214076;59;1238;-69
2022/03/21 02:54:06;;;;;;;;;;;;;;;;;;2214646;67;1295;-69
2022/03/21 02:56:42;;;;;;;;;;;;;;;;;;2215446;67;1994;-69
2022/03/21 02:59:15;;;;;;;;;;;;;;;;;;2215128;67;1249;-69
2022/03/21 03:01:49;;;;;;;;;;;;;;;;;;2211221;59;2085;-69
2022/03/21 03:04:22;;;;;;;;;;;;;;;;;;2210027;67;1194;-69
2022/03/21 03:06:56;;;;;;;;;;;;;;;;;;2214699;59;1529;-68
2022/03/21 03:09:29;;;;;;;;;;;;;;;;;;2214436;59;1084;-68
2022/03/21 03:12:05;;;;;;;;;;;;;;;;;;2214838;67;2424;-69
2022/03/21 03:14:38;;;;;;;;;;;;;;;;;;2214667;67;1272;-69
2022/03/21 03:17:11;;;;;;;;;;;;;;;;;;2214718;67;1922;-69
2022/03/21 03:19:44;;;;;;;;;;;;;;;;;;2214415;67;1240;-68
2022/03/21 03:22:18;;;;;;;;;;;;;;;;;;2214258;59;1790;-69
2022/03/21 03:24:52;;;;;;;;;;;;;;;;;;2213965;67;1299;-69
2022/03/21 03:27:27;;;;;;;;;;;;;;;;;;2214422;59;1224;-69
2022/03/21 03:30:01;;;;;;;;;;;;;;;;;;2214199;67;1081;-68
2022/03/21 03:32:34;;;;;;;;;;;;;;;;;;2214451;67;1230;-68
2022/03/21 03:35:08;;;;;;;;;;;;;;;;;;2214221;67;1143;-68
2022/03/21 03:37:41;;;;;;;;;;;;;;;;;;2214730;67;1925;-68
2022/03/21 03:40:15;;;;;;;;;;;;;;;;;;2213964;67;1088;-69
2022/03/21 03:42:51;;;;;;;;;;;;;;;;;;2213671;59;2009;-69
2022/03/21 03:45:25;;;;;;;;;;;;;;;;;;2213201;67;1112;-69
2022/03/21 03:47:58;;;;;;;;;;;;;;;;;;2213412;59;1252;-69
2022/03/21 03:50:31;;;;;;;;;;;;;;;;;;2214405;67;1278;-69
2022/03/21 03:53:04;;;;;;;;;;;;;;;;;;2213275;67;1303;-68
2022/03/21 03:55:37;;;;;;;;;;;;;;;;;;2214445;59;1233;-69
2022/03/21 03:58:13;;;;;;;;;;;;;;;;;;2214171;67;1988;-69
2022/03/21 04:00:47;;;;;;;;;;;;;;;;;;2214165;67;1192;-68
2022/03/21 04:06:09;;;;;;;;;;;;;;;;;;2213464;67;1057;-69
2022/03/21 04:08:42;;;;;;;;;;;;;;;;;;2213440;59;1207;-68
2022/03/21 04:11:16;;;;;;;;;;;;;;;;;;2214197;67;2424;-68
2022/03/21 04:13:53;;;;;;;;;;;;;;;;;;2213738;59;1768;-69
2022/03/21 04:16:26;;;;;;;;;;;;;;;;;;2214232;67;1179;-68
2022/03/21 04:18:59;;;;;;;;;;;;;;;;;;2213772;67;1931;-69
2022/03/21 04:21:32;;;;;;;;;;;;;;;;;;2212815;59;1609;-69
2022/03/21 04:24:05;;;;;;;;;;;;;;;;;;2213088;67;1206;-69
2022/03/21 04:26:38;;;;;;;;;;;;;;;;;;2214719;67;1174;-69
2022/03/21 04:29:14;;;;;;;;;;;;;;;;;;2214116;67;1244;-69
2022/03/21 04:31:47;;;;;;;;;;;;;;;;;;2213594;59;1202;-68
2022/03/21 04:34:21;;;;;;;;;;;;;;;;;;2213882;59;1180;-69
2022/03/21 04:36:54;;;;;;;;;;;;;;;;;;2214398;67;1916;-68
2022/03/21 04:39:27;;;;;;;;;;;;;;;;;;2214041;67;1066;-68
2022/03/21 04:42:00;;;;;;;;;;;;;;;;;;2214947;59;1672;-69
2022/03/21 04:44:36;;;;;;;;;;;;;;;;;;2213844;60;1144;-68
2022/03/21 04:47:09;;;;;;;;;;;;;;;;;;2214220;67;1073;-69
2022/03/21 04:49:42;;;;;;;;;;;;;;;;;;2214789;67;1111;-68
2022/03/21 04:52:16;;;;;;;;;;;;;;;;;;2214152;67;1228;-68
2022/03/21 04:54:49;;;;;;;;;;;;;;;;;;2213990;67;1238;-68
2022/03/21 04:57:22;;;;;;;;;;;;;;;;;;2214708;59;2015;-68
2022/03/21 04:59:59;;;;;;;;;;;;;;;;;;2214144;59;1307;-69
2022/03/21 05:02:32;;;;;;;;;;;;;;;;;;2213369;59;1613;-68
2022/03/21 05:05:05;;;;;;;;;;;;;;;;;;2209978;67;1263;-69
2022/03/21 05:07:41;;;;;;;;;;;;;;;;;;2214604;67;1175;-68
2022/03/21 05:10:14;;;;;;;;;;;;;;;;;;2215006;67;1182;-68
2022/03/21 05:12:47;;;;;;;;;;;;;;;;;;2214299;59;1950;-68
2022/03/21 05:15:23;;;;;;;;;;;;;;;;;;2214834;67;1209;-69
2022/03/21 05:17:56;;;;;;;;;;;;;;;;;;2214172;67;1981;-68
2022/03/21 05:20:29;;;;;;;;;;;;;;;;;;2212718;59;1429;-68
2022/03/21 05:31:32;;;;;;;;;;;;;;;;;;2214205;67;1210;-68
2022/03/21 05:36:54;;;;;;;;;;;;;;;;;;2214641;67;1020;-68
2022/03/21 05:39:27;;;;;;;;;;;;;;;;;;2213439;60;1936;-68
2022/03/21 05:42:00;;;;;;;;;;;;;;;;;;2213928;59;1582;-68
2022/03/21 05:44:33;;;;;;;;;;;;;;;;;;2214072;67;1200;-69
2022/03/21 05:47:09;;;;;;;;;;;;;;;;;;2214084;67;1257;-68
2022/03/21 05:49:40;;;;;;;;;;;;;;;;;;2214625;66;1470;-68
2022/03/21 05:52:13;;;;;;;;;;;;;;;;;;2213344;59;1922;-68
2022/03/21 05:54:46;;;;;;;;;;;;;;;;;;2213705;67;1130;-68
2022/03/21 05:57:19;;;;;;;;;;;;;;;;;;2215113;67;1924;-69
2022/03/21 06:02:43;;;;;;;;;;;;;;;;;;2213445;59;1775;-68
2022/03/21 06:05:17;;;;;;;;;;;;;;;;;;2214037;67;1272;-68
2022/03/21 06:07:50;;;;;;;;;;;;;;;;;;2214136;67;1223;-69
2022/03/21 06:10:24;;;;;;;;;;;;;;;;;;2214265;59;1172;-68
2022/03/21 06:12:57;;;;;;;;;;;;;;;;;;2213905;59;2040;-68
2022/03/21 06:15:31;;;;;;;;;;;;;;;;;;2213069;59;1663;-68
2022/03/21 06:18:10;;;;;;;;;;;;;;;;;;2214044;59;1966;-69
2022/03/21 06:20:43;;;;;;;;;;;;;;;;;;2214621;67;1128;-69
2022/03/21 06:23:16;;;;;;;;;;;;;;;;;;2209484;53;3479;-72
2022/03/21 06:25:51;;;;;;;;;;;;;;;;;;2207985;59;1341;-72
2022/03/21 06:28:25;;;;;;;;;;;;;;;;;;2210155;59;1167;-72
2022/03/21 06:30:58;;;;;;;;;;;;;;;;;;2210818;59;1322;-72
2022/03/21 06:33:45;;;;;;;;;;;;;;;;;;2206839;59;1184;-72
2022/03/21 06:36:18;;;;;;;;;;;;;;;;;;2206160;67;1068;-72
2022/03/21 06:38:51;;;;;;;;;;;;;;;;;;2206671;59;2066;-72
2022/03/21 06:41:24;;;;;;;;;;;;;;;;;;2206561;59;1729;-72
2022/03/21 06:43:58;;;;;;;;;;;;;;;;;;2205021;67;1078;-72
2022/03/21 06:46:31;;;;;;;;;;;;;;;;;;2206120;67;1297;-72
2022/03/21 06:49:07;;;;;;;;;;;;;;;;;;2206519;67;1195;-72
2022/03/21 06:51:40;;;;;;;;;;;;;;;;;;2206566;59;1249;-72
2022/03/21 06:54:13;;;;;;;;;;;;;;;;;;2202794;59;1398;-72
2022/03/21 06:56:46;;;;;;;;;;;;;;;;;;2206606;59;1208;-73
2022/03/21 06:59:19;;;;;;;;;;;;;;;;;;2206500;67;1945;-72
2022/03/21 07:01:53;;;;;;;;;;;;;;;;;;2207258;59;1732;-70
2022/03/21 07:04:35;;;;;;;;;;;;;;;;;;2204455;59;1369;-72
2022/03/21 07:07:11;;;;;;;;;;;;;;;;;;2203570;67;1836;-70
2022/03/21 07:09:47;;;;;;;;;;;;;;;;;;2206553;59;1245;-70
2022/03/21 07:12:21;;;;;;;;;;;;;;;;;;2207393;59;1917;-70
2022/03/21 07:14:56;;;;;;;;;;;;;;;;;;2207500;59;1105;-70
2022/03/21 07:17:30;;;;;;;;;;;;;;;;;;2207048;59;1180;-70
2022/03/21 07:20:06;;;;;;;;;;;;;;;;;;2207051;59;1918;-70
2022/03/21 07:22:40;;;;;;;;;;;;;;;;;;2205492;59;1918;-70
2022/03/21 07:25:14;;;;;;;;;;;;;;;;;;2205662;59;1488;-70
2022/03/21 07:27:48;;;;;;;;;;;;;;;;;;2206623;67;1145;-71
2022/03/21 07:30:22;;;;;;;;;;;;;;;;;;2206450;59;2345;-70
2022/03/21 07:32:57;;;;;;;;;;;;;;;;;;2206292;59;1636;-70
2022/03/21 07:35:33;;;;;;;;;;;;;;;;;;2204828;59;1351;-70
2022/03/21 07:38:07;;;;;;;;;;;;;;;;;;2205660;59;1985;-70
2022/03/21 07:40:42;;;;;;;;;;;;;;;;;;2206115;59;1220;-70
2022/03/21 07:43:15;;;;;;;;;;;;;;;;;;2205810;59;1798;-70
2022/03/21 07:48:37;;;;;;;;;;;;;;;;;;2206570;59;1331;-70
2022/03/21 07:51:15;;;;;;;;;;;;;;;;;;2207157;59;1267;-70
2022/03/21 07:53:48;;;;;;;;;;;;;;;;;;2206670;59;1125;-70
2022/03/21 07:56:21;;;;;;;;;;;;;;;;;;2206052;67;1188;-70
2022/03/21 07:58:54;;;;;;;;;;;;;;;;;;2206223;67;1940;-71
2022/03/21 08:01:29;;;;;;;;;;;;;;;;;;2205806;59;1583;-70
2022/03/21 08:04:04;;;;;;;;;;;;;;;;;;2204690;59;1186;-70
2022/03/21 08:06:43;;;;;;;;;;;;;;;;;;2205847;67;1094;-70
2022/03/21 08:09:17;;;;;;;;;;;;;;;;;;2206599;59;1676;-70
2022/03/21 08:11:50;;;;;;;;;;;;;;;;;;2207102;59;1922;-70
2022/03/21 08:14:23;;;;;;;;;;;;;;;;;;2205916;67;1196;-70
2022/03/21 08:16:57;;;;;;;;;;;;;;;;;;2206829;59;1201;-70
2022/03/21 08:19:30;;;;;;;;;;;;;;;;;;2204008;59;1985;-70
2022/03/21 08:22:07;;;;;;;;;;;;;;;;;;2205016;59;1823;-71
2022/03/21 08:24:40;;;;;;;;;;;;;;;;;;2206253;59;1196;-70
2022/03/21 08:27:14;;;;;;;;;;;;;;;;;;2207072;59;2300;-71
2022/03/21 08:29:47;;;;;;;;;;;;;;;;;;2203072;59;1828;-70
2022/03/21 08:32:20;;;;;;;;;;;;;;;;;;2205999;59;1168;-71
2022/03/21 08:34:53;;;;;;;;;;;;;;;;;;2206647;59;2428;-71
2022/03/21 08:37:29;;;;;;;;;;;;;;;;;;2205721;59;1903;-71
2022/03/21 08:40:02;;;;;;;;;;;;;;;;;;2206860;59;1967;-70
2022/03/21 08:42:36;;;;;;;;;;;;;;;;;;2204836;59;1908;-70
2022/03/21 08:45:10;;;;;;;;;;;;;;;;;;2206018;59;1220;-71
2022/03/21 08:47:44;;;;;;;;;;;;;;;;;;2206666;59;1239;-70
2022/03/21 08:50:18;;;;;;;;;;;;;;;;;;2205952;67;1190;-70
2022/03/21 08:52:56;;;;;;;;;;;;;;;;;;2203512;67;1401;-70
2022/03/21 08:55:30;;;;;;;;;;;;;;;;;;2207126;59;1672;-70
2022/03/21 08:58:03;;;;;;;;;;;;;;;;;;2206668;59;1109;-71
2022/03/21 09:00:36;;;;;;;;;;;;;;;;;;2205759;59;1941;-71
2022/03/21 09:03:10;;;;;;;;;;;;;;;;;;2205628;59;2194;-70
2022/03/21 09:05:43;;;;;;;;;;;;;;;;;;2205908;59;1190;-70
2022/03/21 09:08:20;;;;;;;;;;;;;;;;;;2206686;67;1121;-70
2022/03/21 09:10:53;;;;;;;;;;;;;;;;;;2206341;59;2348;-71
2022/03/21 09:13:26;;;;;;;;;;;;;;;;;;2202585;59;2026;-70
2022/03/21 09:16:00;;;;;;;;;;;;;;;;;;2206796;67;1094;-70
2022/03/21 09:18:33;;;;;;;;;;;;;;;;;;2206114;59;1995;-70
2022/03/21 09:21:06;;;;;;;;;;;;;;;;;;2206450;67;1187;-71
2022/03/21 09:23:42;;;;;;;;;;;;;;;;;;2205646;59;1748;-71
2022/03/21 09:26:15;;;;;;;;;;;;;;;;;;2207018;59;1625;-70
2022/03/21 09:28:49;;;;;;;;;;;;;;;;;;2205037;59;1871;-71
2022/03/21 09:31:22;;;;;;;;;;;;;;;;;;2206399;59;1284;-71
2022/03/21 09:33:55;;;;;;;;;;;;;;;;;;2206615;67;1265;-71
2022/03/21 09:36:28;;;;;;;;;;;;;;;;;;2206470;59;1170;-71
2022/03/21 09:39:04;;;;;;;;;;;;;;;;;;2206632;67;1941;-71
2022/03/21 09:41:38;;;;;;;;;;;;;;;;;;2204998;59;1924;-71
2022/03/21 09:44:11;;;;;;;;;;;;;;;;;;2206592;67;1226;-70
2022/03/21 09:46:46;;;;;;;;;;;;;;;;;;2206481;59;1087;-71
2022/03/21 09:49:19;;;;;;;;;;;;;;;;;;2206863;67;1152;-71
2022/03/21 09:51:53;;;;;;;;;;;;;;;;;;2206175;67;1227;-70
2022/03/21 09:54:29;;;;;;;;;;;;;;;;;;2205041;67;1176;-71
2022/03/21 09:57:04;;;;;;;;;;;;;;;;;;2206293;59;1165;-71
2022/03/21 09:59:37;;;;;;;;;;;;;;;;;;2204992;59;1932;-71
2022/03/21 10:02:10;;;;;;;;;;;;;;;;;;2206483;59;1735;-71
2022/03/21 10:04:44;;;;;;;;;;;;;;;;;;2206848;60;1144;-70
2022/03/21 10:07:17;;;;;;;;;;;;;;;;;;2207002;67;1123;-71
2022/03/21 10:10:06;;;;;;;;;;;;;;;;;;2207185;67;1223;-70
2022/03/21 10:12:39;;;;;;;;;;;;;;;;;;2207034;59;2083;-71
2022/03/21 10:15:15;;;;;;;;;;;;;;;;;;2206990;59;1897;-71
2022/03/21 10:18:06;;;;;;;;;;;;;;;;;;2207457;59;1138;-70
2022/03/21 10:20:40;;;;;;;;;;;;;;;;;;2206190;59;1936;-71
2022/03/21 10:23:17;;;;;;;;;;;;;;;;;;2206209;59;2104;-71
2022/03/21 10:25:53;;;;;;;;;;;;;;;;;;2207258;59;1251;-71
2022/03/21 10:28:37;;;;;;;;;;;;;;;;;;2206149;67;1075;-70
2022/03/21 10:31:10;;;;;;;;;;;;;;;;;;2207111;59;1217;-70
2022/03/21 10:33:43;;;;;;;;;;;;;;;;;;2206631;67;1227;-71
2022/03/21 10:36:19;;;;;;;;;;;;;;;;;;2206603;59;1135;-71
2022/03/21 10:39:07;;;;;;;;;;;;;;;;;;2207553;59;1936;-71
2022/03/21 10:41:43;;;;;;;;;;;;;;;;;;2206241;59;1979;-71
2022/03/21 10:44:16;;;;;;;;;;;;;;;;;;2206105;67;1190;-71
2022/03/21 10:46:53;;;;;;;;;;;;;;;;;;2207077;67;1232;-70
2022/03/21 10:49:31;;;;;;;;;;;;;;;;;;2207201;59;1227;-71
2022/03/21 10:52:05;;;;;;;;;;;;;;;;;;2206641;59;1249;-70
2022/03/21 10:54:39;;;;;;;;;;;;;;;;;;2206766;67;1112;-71
2022/03/21 10:57:31;;;;;;;;;;;;;;;;;;2206930;59;1234;-72
2022/03/21 11:00:17;;;;;;;;;;;;;;;;;;2207145;67;1951;-71
2022/03/21 11:02:51;;;;;;;;;;;;;;;;;;2205039;59;1938;-71
2022/03/21 11:05:25;;;;;;;;;;;;;;;;;;2206122;67;1200;-70
2022/03/21 11:07:58;;;;;;;;;;;;;;;;;;2206256;67;1118;-71
2022/03/21 11:10:32;;;;;;;;;;;;;;;;;;2206286;67;1202;-72
2022/03/21 11:13:08;;;;;;;;;;;;;;;;;;2205544;59;2320;-71
2022/03/21 11:15:42;;;;;;;;;;;;;;;;;;2206162;67;1198;-71
2022/03/21 11:18:16;;;;;;;;;;;;;;;;;;2202742;67;1704;-68
2022/03/21 11:20:49;;;;;;;;;;;;;;;;;;2205500;59;1930;-69
2022/03/21 11:23:25;;;;;;;;;;;;;;;;;;2204817;59;1776;-68
2022/03/21 11:26:00;;;;;;;;;;;;;;;;;;2205913;59;1746;-69
2022/03/21 11:29:09;;;;;;;;;;;;;;;;;;2206079;59;1939;-69
2022/03/21 11:31:58;;;;;;;;;;;;;;;;;;2205464;59;1980;-69
2022/03/21 11:34:42;;;;;;;;;;;;;;;;;;2205240;67;1054;-69
2022/03/21 11:37:29;;;;;;;;;;;;;;;;;;2206358;67;1067;-69
2022/03/21 11:40:21;;;;;;;;;;;;;;;;;;2206072;67;1990;-69
2022/03/21 11:42:58;;;;;;;;;;;;;;;;;;2205332;59;2046;-69
2022/03/21 11:45:36;;;;;;;;;;;;;;;;;;2206399;59;2349;-69
2022/03/21 11:48:30;;;;;;;;;;;;;;;;;;2207636;59;1237;-69
2022/03/21 11:51:22;;;;;;;;;;;;;;;;;;2206394;59;2211;-68
2022/03/21 11:53:56;;;;;;;;;;;;;;;;;;2206205;59;1489;-69
2022/03/21 11:56:48;;;;;;;;;;;;;;;;;;2205985;59;1234;-69
2022/03/21 11:59:47;;;;;;;;;;;;;;;;;;2205699;59;1998;-69
2022/03/21 12:02:35;;;;;;;;;;;;;;;;;;2201540;59;2171;-69
2022/03/21 12:05:11;;;;;;;;;;;;;;;;;;2204151;67;1417;-70
2022/03/21 12:07:44;;;;;;;;;;;;;;;;;;2205736;59;2053;-70
2022/03/21 12:10:38;;;;;;;;;;;;;;;;;;2203001;59;1903;-70
2022/03/21 12:13:19;;;;;;;;;;;;;;;;;;2205620;59;2108;-70
2022/03/21 12:15:53;;;;;;;;;;;;;;;;;;2206194;67;1192;-70
2022/03/21 12:18:41;;;;;;;;;;;;;;;;;;2206027;67;1106;-69
2022/03/21 12:21:17;;;;;;;;;;;;;;;;;;2205709;67;1928;-68
2022/03/21 12:24:05;;;;;;;;;;;;;;;;;;2207952;59;3653;-68
2022/03/21 12:26:38;;;;;;;;;;;;;;;;;;2211105;59;1976;-68
2022/03/21 12:29:34;;;;;;;;;;;;;;;;;;2212422;67;1237;-68
2022/03/21 12:32:27;;;;;;;;;;;;;;;;;;2212932;59;1591;-68
2022/03/21 12:35:00;;;;;;;;;;;;;;;;;;2210411;59;1884;-68
2022/03/21 12:37:51;;;;;;;;;;;;;;;;;;2210789;67;1105;-68
2022/03/21 12:40:27;;;;;;;;;;;;;;;;;;2210195;59;1933;-68
2022/03/21 12:43:00;;;;;;;;;;;;;;;;;;2210504;59;1583;-68
2022/03/21 12:45:33;;;;;;;;;;;;;;;;;;2212651;67;1165;-68
2022/03/21 12:48:09;;;;;;;;;;;;;;;;;;2211011;67;1244;-68
2022/03/21 12:50:42;;;;;;;;;;;;;;;;;;2210698;59;1351;-68
2022/03/21 12:53:19;;;;;;;;;;;;;;;;;;2210456;67;1298;-68
2022/03/21 12:56:04;;;;;;;;;;;;;;;;;;2210325;59;1083;-68
2022/03/21 12:58:38;;;;;;;;;;;;;;;;;;2209296;59;1535;-68
2022/03/21 13:01:11;;;;;;;;;;;;;;;;;;2211517;67;1931;-68
2022/03/21 13:03:45;;;;;;;;;;;;;;;;;;2206901;59;1593;-68
2022/03/21 13:11:58;;;;;;;;;;;;;;;;;;2209511;59;2203;-68
2022/03/21 13:14:31;;;;;;;;;;;;;;;;;;2209431;67;1196;-68
2022/03/21 13:17:05;;;;;;;;;;;;;;;;;;2210457;67;1203;-68
2022/03/21 13:19:44;;;;;;;;;;;;;;;;;;2209647;59;1120;-68
2022/03/21 13:22:20;;;;;;;;;;;;;;;;;;2209719;59;1771;-68
2022/03/21 13:24:53;;;;;;;;;;;;;;;;;;2208652;59;1446;-68
2022/03/21 13:27:36;;;;;;;;;;;;;;;;;;2210910;59;1676;-70
2022/03/21 13:30:10;;;;;;;;;;;;;;;;;;2210423;59;1328;-68
2022/03/21 13:32:44;;;;;;;;;;;;;;;;;;2209538;67;1243;-69
2022/03/21 13:35:17;;;;;;;;;;;;;;;;;;2209948;67;1181;-68
2022/03/21 13:38:01;;;;;;;;;;;;;;;;;;2209804;67;1323;-70
2022/03/21 13:40:45;;;;;;;;;;;;;;;;;;2209773;67;1915;-70
2022/03/21 13:43:22;;;;;;;;;;;;;;;;;;2210508;59;1700;-70
2022/03/21 13:45:56;;;;;;;;;;;;;;;;;;2210465;59;1049;-70
2022/03/21 13:48:33;;;;;;;;;;;;;;;;;;2210366;59;1122;-69
2022/03/21 13:51:20;;;;;;;;;;;;;;;;;;2210126;59;1127;-70
2022/03/21 13:54:10;;;;;;;;;;;;;;;;;;2209629;59;1320;-70
2022/03/21 13:56:46;;;;;;;;;;;;;;;;;;2210011;59;1011;-70
2022/03/21 13:59:23;;;;;;;;;;;;;;;;;;2210071;59;1179;-68
2022/03/21 14:01:56;;;;;;;;;;;;;;;;;;2210082;59;1935;-68
2022/03/21 14:04:29;;;;;;;;;;;;;;;;;;2211384;67;1211;-68
2022/03/21 14:07:03;;;;;;;;;;;;;;;;;;2210257;67;1095;-68
2022/03/21 14:09:36;;;;;;;;;;;;;;;;;;2210323;67;1149;-68
2022/03/21 14:12:11;;;;;;;;;;;;;;;;;;2209576;59;2449;-68
2022/03/21 14:14:48;;;;;;;;;;;;;;;;;;2210660;67;1216;-68
2022/03/21 14:17:21;;;;;;;;;;;;;;;;;;2210626;67;1122;-68
2022/03/21 14:19:54;;;;;;;;;;;;;;;;;;2210970;67;1300;-68
2022/03/21 14:22:27;;;;;;;;;;;;;;;;;;2209652;59;1997;-68
2022/03/21 14:25:00;;;;;;;;;;;;;;;;;;2208146;59;1647;-68
2022/03/21 14:27:33;;;;;;;;;;;;;;;;;;2209652;59;1611;-69
2022/03/21 14:30:10;;;;;;;;;;;;;;;;;;2210006;59;1228;-68
2022/03/21 14:32:43;;;;;;;;;;;;;;;;;;2209395;67;1283;-68
2022/03/21 14:35:16;;;;;;;;;;;;;;;;;;2210300;59;1100;-68
2022/03/21 14:37:50;;;;;;;;;;;;;;;;;;2209645;67;1190;-68
2022/03/21 14:40:23;;;;;;;;;;;;;;;;;;2210464;67;1934;-68
2022/03/21 14:42:56;;;;;;;;;;;;;;;;;;2210029;59;1661;-68
2022/03/21 14:45:32;;;;;;;;;;;;;;;;;;2210683;67;1186;-68
2022/03/21 14:48:05;;;;;;;;;;;;;;;;;;2210906;67;1115;-68
2022/03/21 14:50:39;;;;;;;;;;;;;;;;;;2210735;59;1145;-68
2022/03/21 14:53:12;;;;;;;;;;;;;;;;;;2210792;59;1227;-68
2022/03/21 14:55:45;;;;;;;;;;;;;;;;;;2210484;67;1196;-68
2022/03/21 14:58:18;;;;;;;;;;;;;;;;;;2210927;59;1189;-68
2022/03/21 15:00:54;;;;;;;;;;;;;;;;;;2210072;67;1926;-68
2022/03/21 15:03:27;;;;;;;;;;;;;;;;;;2210684;59;1926;-68
2022/03/21 15:06:00;;;;;;;;;;;;;;;;;;2210981;67;1108;-68
2022/03/21 15:08:33;;;;;;;;;;;;;;;;;;2210747;67;1339;-68
2022/03/21 15:11:09;;;;;;;;;;;;;;;;;;2210777;59;2007;-68
2022/03/21 15:13:42;;;;;;;;;;;;;;;;;;2210051;59;2260;-68
2022/03/21 15:16:18;;;;;;;;;;;;;;;;;;2210450;67;1177;-68
2022/03/21 15:18:51;;;;;;;;;;;;;;;;;;2211054;59;1258;-69
2022/03/21 15:21:25;;;;;;;;;;;;;;;;;;2210506;59;1932;-68
2022/03/21 15:23:58;;;;;;;;;;;;;;;;;;2205652;59;1816;-68
2022/03/21 15:26:31;;;;;;;;;;;;;;;;;;2210587;67;1074;-68
2022/03/21 15:29:04;;;;;;;;;;;;;;;;;;2209972;59;1223;-68
2022/03/21 15:31:40;;;;;;;;;;;;;;;;;;2210357;67;1239;-68
2022/03/21 15:34:13;;;;;;;;;;;;;;;;;;2209851;67;1124;-68
2022/03/21 15:42:24;;;;;;;;;;;;;;;;;;2210330;59;1945;-68
2022/03/21 15:44:57;;;;;;;;;;;;;;;;;;2210683;67;1238;-68
2022/03/21 15:47:33;;;;;;;;;;;;;;;;;;2211634;67;1095;-68
2022/03/21 15:50:07;;;;;;;;;;;;;;;;;;2206778;67;1222;-68
2022/03/21 15:52:40;;;;;;;;;;;;;;;;;;2210047;67;1283;-68
2022/03/21 15:55:14;;;;;;;;;;;;;;;;;;2210022;67;1140;-68
2022/03/21 15:57:49;;;;;;;;;;;;;;;;;;2210073;67;1195;-68
2022/03/21 16:00:23;;;;;;;;;;;;;;;;;;2209979;67;1234;-68
2022/03/21 16:03:00;;;;;;;;;;;;;;;;;;2210742;59;1951;-69
2022/03/21 16:05:33;;;;;;;;;;;;;;;;;;2211034;67;1236;-68
2022/03/21 16:08:07;;;;;;;;;;;;;;;;;;2211379;67;1240;-68
2022/03/21 16:10:40;;;;;;;;;;;;;;;;;;2210162;59;1318;-68
2022/03/21 16:13:14;;;;;;;;;;;;;;;;;;2210384;59;2268;-68
2022/03/21 16:15:47;;;;;;;;;;;;;;;;;;2208937;67;1153;-68
2022/03/21 16:18:27;;;;;;;;;;;;;;;;;;2210211;59;1136;-68
2022/03/21 16:21:00;;;;;;;;;;;;;;;;;;2210546;59;1932;-68
2022/03/21 16:23:33;;;;;;;;;;;;;;;;;;2208992;59;1573;-68
2022/03/21 16:26:06;;;;;;;;;;;;;;;;;;2210704;59;1178;-68
2022/03/21 16:28:40;;;;;;;;;;;;;;;;;;2210233;67;1279;-68
2022/03/21 16:31:15;;;;;;;;;;;;;;;;;;2210148;59;1073;-68
2022/03/21 16:33:50;;;;;;;;;;;;;;;;;;2210226;67;1307;-68
2022/03/21 16:36:24;;;;;;;;;;;;;;;;;;2210085;59;1188;-68
2022/03/21 16:38:57;;;;;;;;;;;;;;;;;;2210618;67;1126;-70
2022/03/21 16:41:30;;;;;;;;;;;;;;;;;;2208146;67;1944;-70
2022/03/21 16:44:04;;;;;;;;;;;;;;;;;;2209518;59;1672;-70
2022/03/21 16:46:37;;;;;;;;;;;;;;;;;;2210315;59;1242;-70
2022/03/21 16:49:13;;;;;;;;;;;;;;;;;;2210193;59;1249;-70
2022/03/21 16:51:46;;;;;;;;;;;;;;;;;;2209989;67;1286;-70
2022/03/21 16:54:19;;;;;;;;;;;;;;;;;;2209876;59;1184;-70
2022/03/21 16:56:55;;;;;;;;;;;;;;;;;;2210457;59;1110;-70
2022/03/21 16:59:28;;;;;;;;;;;;;;;;;;2209014;67;1061;-70
2022/03/21 17:02:01;;;;;;;;;;;;;;;;;;2209612;59;1933;-70
2022/03/21 17:04:38;;;;;;;;;;;;;;;;;;2209856;67;1313;-69
2022/03/21 17:07:12;;;;;;;;;;;;;;;;;;2211515;67;1266;-70
2022/03/21 17:09:45;;;;;;;;;;;;;;;;;;2210830;67;1321;-70
2022/03/21 17:12:18;;;;;;;;;;;;;;;;;;2209250;59;2127;-70
2022/03/21 17:14:52;;;;;;;;;;;;;;;;;;2209716;59;1579;-70
2022/03/21 17:17:26;;;;;;;;;;;;;;;;;;2205980;59;1218;-69
2022/03/21 17:25:41;;;;;;;;;;;;;;;;;;2209844;59;1680;-69
2022/03/21 17:28:14;;;;;;;;;;;;;;;;;;2208715;59;1244;-70
2022/03/21 17:30:47;;;;;;;;;;;;;;;;;;2210131;59;1353;-70
2022/03/21 17:33:20;;;;;;;;;;;;;;;;;;2209801;67;1241;-70
2022/03/21 17:35:56;;;;;;;;;;;;;;;;;;2209492;59;1349;-70
2022/03/21 17:38:30;;;;;;;;;;;;;;;;;;2210642;67;1181;-70
2022/03/21 17:41:04;;;;;;;;;;;;;;;;;;2210448;67;1046;-70
2022/03/21 17:43:37;;;;;;;;;;;;;;;;;;2209685;59;1760;-70
2022/03/21 17:46:11;;;;;;;;;;;;;;;;;;2208632;59;3708;-69
2022/03/21 17:48:45;;;;;;;;;;;;;;;;;;2209300;59;1596;-70
2022/03/21 17:51:21;;;;;;;;;;;;;;;;;;2205801;59;1745;-69
2022/03/21 17:53:54;;;;;;;;;;;;;;;;;;2210244;67;1285;-70
2022/03/21 17:56:28;;;;;;;;;;;;;;;;;;2209863;59;1160;-70
2022/03/21 17:59:06;;;;;;;;;;;;;;;;;;2210998;67;1094;-70
2022/03/21 18:01:40;;;;;;;;;;;;;;;;;;2206743;59;1989;-69
2022/03/21 18:04:14;;;;;;;;;;;;;;;;;;2210658;59;1435;-70
2022/03/21 18:06:50;;;;;;;;;;;;;;;;;;2207550;67;1301;-69
2022/03/21 18:09:24;;;;;;;;;;;;;;;;;;2209558;59;1193;-70
2022/03/21 18:11:57;;;;;;;;;;;;;;;;;;2209914;59;2083;-70
2022/03/21 18:14:30;;;;;;;;;;;;;;;;;;2210846;67;1132;-70
2022/03/21 18:17:04;;;;;;;;;;;;;;;;;;2205945;59;1319;-70
2022/03/21 18:22:28;;;;;;;;;;;;;;;;;;2212046;53;3621;-74
2022/03/21 18:25:03;;;;;;;;;;;;;;;;;;2211610;67;1087;-74
2022/03/21 18:27:36;;;;;;;;;;;;;;;;;;2214327;59;1221;-74
2022/03/21 18:30:11;;;;;;;;;;;;;;;;;;2213910;59;1235;-74
2022/03/21 18:32:44;;;;;;;;;;;;;;;;;;2210300;67;1425;-74
2022/03/21 18:35:17;;;;;;;;;;;;;;;;;;2214999;59;1092;-74
2022/03/21 18:37:53;;;;;;;;;;;;;;;;;;2214766;59;1570;-74
2022/03/21 18:40:26;;;;;;;;;;;;;;;;;;2211521;59;1296;-74